Time;durP1;ratioP1;P1;durP2;ratioP2;P2;SDS_P1;SDS_P2;PMS_P1;PMS_P2;Temp;Humidity;BMP_temperature;BMP_pressure;BME280_temperature;BME280_humidity;BME280_pressure;Samples;Min_cycle;Max_cycle;Signal;HPM_P1;HPM_P2
2022/10/23 00:01:33;;;;;;;4.10;1.10;;;;;;;;;;5103339;28;20276;-85
2022/10/23 00:04:02;;;;;;;2.50;1.00;;;;;;;;;;5095305;28;20222;-82
2022/10/23 00:06:32;;;;;;;2.53;1.00;;;;;;;;;;5094693;28;20277;-82
2022/10/23 00:08:59;;;;;;;3.58;1.08;;;;;;;;;;5094710;28;20277;-82
2022/10/23 00:11:28;;;;;;;2.58;0.90;;;;;;;;;;5094843;28;20668;-82
2022/10/23 00:13:56;;;;;;;3.50;1.20;;;;;;;;;;5095436;28;20695;-83
2022/10/23 00:16:23;;;;;;;4.80;1.30;;;;;;;;;;5108566;28;20201;-82
2022/10/23 00:18:51;;;;;;;1.83;0.98;;;;;;;;;;5113817;28;20288;-82
2022/10/23 00:21:19;;;;;;;3.55;1.17;;;;;;;;;;5094917;28;20750;-82
2022/10/23 00:23:47;;;;;;;2.72;0.93;;;;;;;;;;5102222;28;20201;-82
2022/10/23 00:26:15;;;;;;;5.55;1.17;;;;;;;;;;5113969;28;20222;-82
2022/10/23 00:28:55;;;;;;;3.00;1.15;;;;;;;;;;5100142;28;20229;-82
2022/10/23 00:31:23;;;;;;;2.90;1.20;;;;;;;;;;5106500;28;20247;-82
2022/10/23 00:33:50;;;;;;;2.83;1.13;;;;;;;;;;5114421;28;20198;-82
2022/10/23 00:36:18;;;;;;;3.88;1.15;;;;;;;;;;5097313;28;20278;-82
2022/10/23 00:38:47;;;;;;;4.05;1.10;;;;;;;;;;5114647;28;20236;-82
2022/10/23 00:41:16;;;;;;;4.75;1.25;;;;;;;;;;5115013;28;20630;-82
2022/10/23 00:43:57;;;;;;;3.05;1.30;;;;;;;;;;5112927;28;20229;-82
2022/10/23 00:46:24;;;;;;;2.67;1.02;;;;;;;;;;5125400;27;20237;-82
2022/10/23 00:48:51;;;;;;;3.38;1.00;;;;;;;;;;5094093;28;20225;-82
2022/10/23 00:51:19;;;;;;;3.08;1.00;;;;;;;;;;5103278;28;20266;-82
2022/10/23 00:53:49;;;;;;;3.78;1.10;;;;;;;;;;5101988;28;20701;-83
2022/10/23 00:56:16;;;;;;;3.00;1.40;;;;;;;;;;5097167;28;20232;-82
2022/10/23 00:58:43;;;;;;;2.65;0.88;;;;;;;;;;5097239;28;20243;-82
2022/10/23 01:01:21;;;;;;;3.87;1.07;;;;;;;;;;5100260;28;20206;-83
2022/10/23 01:03:49;;;;;;;3.47;1.10;;;;;;;;;;5094120;28;20186;-83
2022/10/23 01:06:21;;;;;;;4.38;1.20;;;;;;;;;;5109196;28;20259;-83
2022/10/23 01:08:53;;;;;;;2.53;1.10;;;;;;;;;;5110431;28;20218;-83
2022/10/23 01:11:23;;;;;;;3.53;1.10;;;;;;;;;;5110625;28;20835;-82
2022/10/23 01:13:53;;;;;;;1.83;1.15;;;;;;;;;;5102189;28;20230;-82
2022/10/23 01:16:22;;;;;;;3.05;0.90;;;;;;;;;;5104225;28;20201;-82
2022/10/23 01:18:54;;;;;;;3.13;1.27;;;;;;;;;;5104114;28;20669;-82
2022/10/23 01:21:25;;;;;;;4.90;1.30;;;;;;;;;;5114033;28;20229;-82
2022/10/23 01:24:04;;;;;;;3.42;1.00;;;;;;;;;;5102428;28;20285;-82
2022/10/23 01:26:36;;;;;;;3.72;1.40;;;;;;;;;;5098993;28;20286;-82
2022/10/23 01:29:26;;;;;;;3.50;1.20;;;;;;;;;;5104207;28;20246;-82
2022/10/23 01:31:57;;;;;;;4.20;1.30;;;;;;;;;;5093673;28;20218;-82
2022/10/23 01:34:29;;;;;;;4.55;1.40;;;;;;;;;;5109668;28;20252;-82
2022/10/23 01:36:58;;;;;;;2.45;1.15;;;;;;;;;;5105784;28;20277;-82
2022/10/23 01:39:26;;;;;;;4.33;1.47;;;;;;;;;;5106092;28;20250;-82
2022/10/23 01:41:55;;;;;;;2.47;1.20;;;;;;;;;;5096346;28;20234;-82
2022/10/23 01:44:25;;;;;;;4.80;1.02;;;;;;;;;;5102218;28;20240;-82
2022/10/23 01:46:53;;;;;;;3.17;1.20;;;;;;;;;;5093633;28;20260;-82
2022/10/23 01:49:23;;;;;;;3.33;1.30;;;;;;;;;;5109643;28;20886;-82
2022/10/23 01:51:52;;;;;;;3.20;1.17;;;;;;;;;;5093636;28;20289;-82
2022/10/23 01:54:19;;;;;;;2.55;1.20;;;;;;;;;;5093069;28;20784;-82
2022/10/23 01:56:49;;;;;;;3.85;1.27;;;;;;;;;;5106689;28;20633;-82
2022/10/23 01:59:19;;;;;;;1.85;1.00;;;;;;;;;;5104080;28;20221;-82
2022/10/23 02:01:48;;;;;;;2.30;1.10;;;;;;;;;;5099437;28;20234;-82
2022/10/23 02:04:19;;;;;;;4.03;1.40;;;;;;;;;;5101024;28;20209;-82
2022/10/23 02:06:47;;;;;;;3.03;1.10;;;;;;;;;;5099526;28;20247;-82
2022/10/23 02:09:14;;;;;;;6.00;1.30;;;;;;;;;;5092844;28;20684;-82
2022/10/23 02:11:46;;;;;;;3.00;1.30;;;;;;;;;;5092653;28;20313;-82
2022/10/23 02:14:15;;;;;;;2.70;1.37;;;;;;;;;;5096875;28;20232;-82
2022/10/23 02:16:46;;;;;;;2.33;1.13;;;;;;;;;;5096665;28;20228;-82
2022/10/23 02:19:18;;;;;;;2.57;1.30;;;;;;;;;;5104675;28;20226;-82
2022/10/23 02:21:51;;;;;;;3.93;1.37;;;;;;;;;;5097500;28;20255;-82
2022/10/23 02:24:19;;;;;;;2.77;1.30;;;;;;;;;;5104037;28;20226;-82
2022/10/23 02:26:52;;;;;;;2.63;1.20;;;;;;;;;;5109168;28;20229;-82
2022/10/23 02:29:20;;;;;;;2.73;1.10;;;;;;;;;;5102776;28;20725;-82
2022/10/23 02:31:48;;;;;;;3.37;1.40;;;;;;;;;;5093317;28;20240;-82
2022/10/23 02:34:15;;;;;;;3.17;1.30;;;;;;;;;;5092450;28;20229;-82
2022/10/23 02:36:42;;;;;;;2.20;1.20;;;;;;;;;;5097599;28;20251;-82
2022/10/23 02:39:11;;;;;;;2.03;1.20;;;;;;;;;;5107718;28;20236;-82
2022/10/23 02:41:43;;;;;;;3.13;1.30;;;;;;;;;;5094955;28;20233;-82
2022/10/23 02:44:17;;;;;;;3.10;1.40;;;;;;;;;;5101008;28;20214;-82
2022/10/23 02:46:48;;;;;;;2.80;1.30;;;;;;;;;;5108886;28;20243;-82
2022/10/23 02:49:19;;;;;;;2.50;1.37;;;;;;;;;;5092947;28;20289;-82
2022/10/23 02:51:53;;;;;;;2.83;1.30;;;;;;;;;;5101226;28;20665;-83
2022/10/23 02:54:30;;;;;;;2.80;1.43;;;;;;;;;;5098650;28;20272;-82
2022/10/23 02:57:02;;;;;;;3.37;1.20;;;;;;;;;;5098377;28;20561;-82
2022/10/23 02:59:31;;;;;;;4.60;1.67;;;;;;;;;;5097950;28;20226;-82
2022/10/23 03:02:02;;;;;;;3.83;1.23;;;;;;;;;;5109557;28;20236;-82
2022/10/23 03:04:32;;;;;;;5.00;1.70;;;;;;;;;;5108064;28;20244;-82
2022/10/23 03:06:59;;;;;;;2.77;1.40;;;;;;;;;;5101173;28;20194;-82
2022/10/23 03:09:28;;;;;;;4.83;1.63;;;;;;;;;;5099929;28;20223;-82
2022/10/23 03:11:55;;;;;;;2.47;1.50;;;;;;;;;;5094043;28;20258;-83
2022/10/23 03:14:22;;;;;;;6.23;1.60;;;;;;;;;;5104687;28;20755;-82
2022/10/23 03:16:50;;;;;;;2.33;1.37;;;;;;;;;;5105841;28;20237;-82
2022/10/23 03:19:17;;;;;;;5.23;1.30;;;;;;;;;;5093708;28;20198;-82
2022/10/23 03:21:44;;;;;;;2.23;1.33;;;;;;;;;;5096847;28;20260;-82
2022/10/23 03:24:11;;;;;;;4.60;1.30;;;;;;;;;;5111920;28;20251;-83
2022/10/23 03:26:40;;;;;;;4.37;1.40;;;;;;;;;;5097966;28;20762;-82
2022/10/23 03:29:07;;;;;;;2.97;1.40;;;;;;;;;;5098949;28;20305;-82
2022/10/23 03:31:34;;;;;;;2.23;1.20;;;;;;;;;;5107255;28;20206;-82
2022/10/23 03:34:01;;;;;;;2.23;1.20;;;;;;;;;;5115548;28;20653;-82
2022/10/23 03:36:29;;;;;;;2.90;1.40;;;;;;;;;;5106209;28;20305;-82
2022/10/23 03:38:59;;;;;;;4.80;1.33;;;;;;;;;;5109154;28;20229;-82
2022/10/23 03:41:26;;;;;;;3.43;1.50;;;;;;;;;;5115742;28;20194;-81
2022/10/23 03:43:54;;;;;;;2.17;1.40;;;;;;;;;;5111696;28;20204;-82
2022/10/23 03:46:21;;;;;;;2.20;1.27;;;;;;;;;;5095941;28;20618;-82
2022/10/23 03:48:49;;;;;;;2.53;1.43;;;;;;;;;;5113210;28;20199;-82
2022/10/23 03:51:16;;;;;;;2.70;1.43;;;;;;;;;;5114186;28;20284;-82
2022/10/23 03:53:43;;;;;;;5.50;1.50;;;;;;;;;;5096507;28;20273;-81
2022/10/23 03:56:10;;;;;;;4.78;1.40;;;;;;;;;;5110056;28;20245;-82
2022/10/23 03:58:37;;;;;;;3.17;1.43;;;;;;;;;;5112699;28;20293;-81
2022/10/23 04:01:06;;;;;;;3.13;1.40;;;;;;;;;;5101134;28;20194;-82
2022/10/23 04:03:33;;;;;;;3.60;1.40;;;;;;;;;;5111077;28;20229;-82
2022/10/23 04:06:00;;;;;;;4.13;1.53;;;;;;;;;;5113873;28;20236;-82
2022/10/23 04:08:28;;;;;;;3.10;1.30;;;;;;;;;;5105100;28;20280;-82
2022/10/23 04:10:55;;;;;;;3.07;1.17;;;;;;;;;;5102514;28;20222;-82
2022/10/23 04:13:22;;;;;;;4.43;1.70;;;;;;;;;;5108231;28;20222;-82
2022/10/23 04:15:49;;;;;;;3.22;1.42;;;;;;;;;;5117460;27;20201;-82
2022/10/23 04:18:18;;;;;;;5.32;1.52;;;;;;;;;;5110360;28;20237;-82
2022/10/23 04:20:48;;;;;;;2.40;1.60;;;;;;;;;;5111456;28;20241;-82
2022/10/23 04:23:15;;;;;;;7.25;1.52;;;;;;;;;;5113620;28;20202;-82
2022/10/23 04:25:42;;;;;;;3.50;1.45;;;;;;;;;;5095911;28;20277;-82
2022/10/23 04:28:10;;;;;;;4.10;1.67;;;;;;;;;;5105093;28;20233;-82
2022/10/23 04:30:37;;;;;;;2.85;1.50;;;;;;;;;;5094458;28;20230;-78
2022/10/23 04:33:04;;;;;;;4.47;1.67;;;;;;;;;;5099053;28;20281;-79
2022/10/23 04:35:33;;;;;;;3.63;1.70;;;;;;;;;;5105754;28;20242;-78
2022/10/23 04:38:00;;;;;;;2.53;1.50;;;;;;;;;;5105182;28;20685;-78
2022/10/23 04:40:27;;;;;;;3.72;1.60;;;;;;;;;;5101954;28;20198;-79
2022/10/23 04:42:54;;;;;;;2.90;1.48;;;;;;;;;;5100841;28;20285;-79
2022/10/23 04:45:21;;;;;;;5.78;1.40;;;;;;;;;;5103653;28;20218;-79
2022/10/23 04:47:48;;;;;;;2.88;1.40;;;;;;;;;;5106016;28;20236;-79
2022/10/23 04:50:16;;;;;;;3.03;1.50;;;;;;;;;;5096607;28;20241;-78
2022/10/23 04:52:44;;;;;;;3.78;1.60;;;;;;;;;;5101132;28;20230;-79
2022/10/23 04:55:11;;;;;;;6.72;1.50;;;;;;;;;;5096223;28;20274;-79
2022/10/23 04:57:39;;;;;;;3.92;1.63;;;;;;;;;;5093859;28;20230;-79
2022/10/23 05:00:07;;;;;;;2.40;1.30;;;;;;;;;;5108562;28;20202;-78
2022/10/23 05:02:35;;;;;;;5.95;1.70;;;;;;;;;;5095607;28;20259;-79
2022/10/23 05:05:02;;;;;;;2.83;1.60;;;;;;;;;;5094010;28;20303;-78
2022/10/23 05:07:29;;;;;;;3.08;1.50;;;;;;;;;;5093536;28;20230;-79
2022/10/23 05:09:58;;;;;;;2.35;1.30;;;;;;;;;;5095400;28;20299;-78
2022/10/23 05:12:26;;;;;;;4.93;1.58;;;;;;;;;;5112537;28;20221;-78
2022/10/23 05:14:53;;;;;;;2.45;1.40;;;;;;;;;;5113344;28;20285;-79
2022/10/23 05:17:23;;;;;;;3.25;1.65;;;;;;;;;;5111761;28;20309;-78
2022/10/23 05:19:52;;;;;;;4.22;2.00;;;;;;;;;;5113133;28;20732;-79
2022/10/23 05:22:20;;;;;;;6.70;1.55;;;;;;;;;;5110555;28;20197;-79
2022/10/23 05:24:47;;;;;;;4.35;1.58;;;;;;;;;;5092619;28;20230;-79
2022/10/23 05:27:15;;;;;;;2.33;1.52;;;;;;;;;;5094916;28;20273;-79
2022/10/23 05:29:43;;;;;;;4.70;1.70;;;;;;;;;;5102309;28;20222;-78
2022/10/23 05:32:11;;;;;;;5.15;1.90;;;;;;;;;;5100821;28;20690;-79
2022/10/23 05:34:39;;;;;;;3.72;1.65;;;;;;;;;;5101136;28;20280;-78
2022/10/23 05:37:07;;;;;;;5.40;1.80;;;;;;;;;;5103271;28;20261;-79
2022/10/23 05:39:35;;;;;;;2.78;1.70;;;;;;;;;;5097479;28;20205;-79
2022/10/23 05:42:02;;;;;;;3.70;1.73;;;;;;;;;;5102918;28;20636;-79
2022/10/23 05:44:31;;;;;;;4.32;1.88;;;;;;;;;;5104025;28;20198;-79
2022/10/23 05:46:58;;;;;;;3.50;1.87;;;;;;;;;;5102838;28;20281;-79
2022/10/23 05:49:25;;;;;;;4.13;1.80;;;;;;;;;;5104358;28;20272;-78
2022/10/23 05:51:52;;;;;;;3.63;1.80;;;;;;;;;;5105066;28;20233;-79
2022/10/23 05:54:20;;;;;;;3.67;1.92;;;;;;;;;;5099919;28;20194;-79
2022/10/23 05:56:47;;;;;;;4.50;2.20;;;;;;;;;;5104605;28;20250;-79
2022/10/23 05:59:14;;;;;;;4.53;2.10;;;;;;;;;;5104288;28;20255;-79
2022/10/23 06:01:43;;;;;;;5.87;2.40;;;;;;;;;;5097951;28;20226;-79
2022/10/23 06:04:10;;;;;;;4.80;2.10;;;;;;;;;;5109170;28;20669;-79
2022/10/23 06:06:37;;;;;;;5.00;1.90;;;;;;;;;;5107960;28;20239;-79
2022/10/23 06:09:05;;;;;;;3.70;2.20;;;;;;;;;;5103113;28;20225;-79
2022/10/23 06:11:32;;;;;;;4.57;2.50;;;;;;;;;;5100832;28;20254;-80
2022/10/23 06:13:59;;;;;;;3.45;2.30;;;;;;;;;;5100734;28;20234;-79
2022/10/23 06:16:26;;;;;;;4.40;2.37;;;;;;;;;;5101068;28;20591;-79
2022/10/23 06:18:56;;;;;;;4.97;2.28;;;;;;;;;;5113166;28;20288;-79
2022/10/23 06:21:23;;;;;;;4.93;2.57;;;;;;;;;;5091197;28;20204;-79
2022/10/23 06:23:50;;;;;;;4.00;2.22;;;;;;;;;;5091584;28;20294;-78
2022/10/23 06:26:19;;;;;;;4.67;2.20;;;;;;;;;;5100507;28;20644;-78
2022/10/23 06:28:46;;;;;;;4.45;2.33;;;;;;;;;;5104317;28;20305;-79
2022/10/23 06:31:14;;;;;;;3.67;2.25;;;;;;;;;;5102622;28;20673;-79
2022/10/23 06:33:42;;;;;;;5.43;2.13;;;;;;;;;;5092302;28;20233;-79
2022/10/23 06:36:11;;;;;;;4.53;2.50;;;;;;;;;;5100697;28;20270;-78
2022/10/23 06:38:39;;;;;;;5.37;2.57;;;;;;;;;;5100599;28;20665;-79
2022/10/23 06:41:07;;;;;;;6.47;2.35;;;;;;;;;;5098354;28;20212;-79
2022/10/23 06:43:34;;;;;;;5.32;2.30;;;;;;;;;;5102642;28;20226;-79
2022/10/23 06:46:02;;;;;;;8.25;2.97;;;;;;;;;;5105295;28;20568;-79
2022/10/23 06:48:29;;;;;;;4.53;2.57;;;;;;;;;;5102488;28;20555;-79
2022/10/23 06:50:57;;;;;;;5.43;2.60;;;;;;;;;;5108858;28;20286;-79
2022/10/23 06:53:26;;;;;;;7.70;3.47;;;;;;;;;;5106796;28;20232;-79
2022/10/23 06:55:53;;;;;;;6.33;2.70;;;;;;;;;;5115693;28;20202;-79
2022/10/23 06:58:21;;;;;;;6.10;2.67;;;;;;;;;;5115446;28;20293;-79
2022/10/23 07:00:48;;;;;;;9.00;2.70;;;;;;;;;;5111193;28;20281;-79
2022/10/23 07:03:15;;;;;;;6.33;3.13;;;;;;;;;;5102714;28;20647;-79
2022/10/23 07:05:43;;;;;;;6.47;2.70;;;;;;;;;;5104649;28;20252;-79
2022/10/23 07:08:10;;;;;;;5.13;2.93;;;;;;;;;;5108283;28;20198;-78
2022/10/23 07:10:41;;;;;;;6.57;3.07;;;;;;;;;;5106252;28;20287;-79
2022/10/23 07:13:08;;;;;;;4.75;3.05;;;;;;;;;;5105918;28;20201;-79
2022/10/23 07:15:36;;;;;;;7.00;3.00;;;;;;;;;;5106832;28;20233;-79
2022/10/23 07:18:03;;;;;;;4.20;2.57;;;;;;;;;;5104171;28;20213;-78
2022/10/23 07:20:30;;;;;;;5.40;3.15;;;;;;;;;;5103722;28;20617;-79
2022/10/23 07:22:58;;;;;;;8.03;2.67;;;;;;;;;;5113946;28;20237;-79
2022/10/23 07:25:26;;;;;;;5.93;2.97;;;;;;;;;;5103512;28;20286;-78
2022/10/23 07:27:55;;;;;;;6.22;2.95;;;;;;;;;;5095578;28;20226;-78
2022/10/23 07:30:23;;;;;;;6.70;3.40;;;;;;;;;;5102752;28;20229;-79
2022/10/23 07:32:50;;;;;;;5.37;3.20;;;;;;;;;;5101603;28;20205;-78
2022/10/23 07:35:17;;;;;;;7.67;3.20;;;;;;;;;;5100785;28;20297;-78
2022/10/23 07:37:44;;;;;;;5.95;3.15;;;;;;;;;;5107784;28;20233;-79
2022/10/23 07:40:12;;;;;;;9.33;3.43;;;;;;;;;;5112984;28;20276;-79
2022/10/23 07:42:39;;;;;;;7.50;2.83;;;;;;;;;;5095499;28;20281;-79
2022/10/23 07:45:08;;;;;;;6.60;2.83;;;;;;;;;;5103145;28;20285;-79
2022/10/23 07:47:36;;;;;;;7.43;3.13;;;;;;;;;;5095243;28;20607;-80
2022/10/23 07:50:03;;;;;;;7.73;3.30;;;;;;;;;;5112738;28;20288;-80
2022/10/23 07:52:30;;;;;;;4.47;2.70;;;;;;;;;;5104107;28;20285;-80
2022/10/23 07:54:57;;;;;;;6.43;2.97;;;;;;;;;;5106039;28;20281;-80
2022/10/23 07:57:24;;;;;;;5.38;3.00;;;;;;;;;;5104673;28;20253;-80
2022/10/23 07:59:53;;;;;;;9.77;3.30;;;;;;;;;;5105900;28;20235;-80
2022/10/23 08:02:22;;;;;;;6.60;3.30;;;;;;;;;;5108264;28;20575;-80
2022/10/23 08:04:49;;;;;;;7.50;3.37;;;;;;;;;;5114199;28;20229;-80
2022/10/23 08:07:16;;;;;;;7.47;3.13;;;;;;;;;;5111001;28;20268;-80
2022/10/23 08:09:44;;;;;;;8.88;3.28;;;;;;;;;;5102730;28;20289;-80
2022/10/23 08:12:11;;;;;;;7.03;2.80;;;;;;;;;;5097083;28;20287;-82
2022/10/23 08:14:38;;;;;;;6.85;2.78;;;;;;;;;;5109608;28;20206;-82
2022/10/23 08:17:08;;;;;;;6.10;3.20;;;;;;;;;;5094133;28;20761;-80
2022/10/23 08:19:37;;;;;;;7.75;2.92;;;;;;;;;;5103838;27;20214;-79
2022/10/23 08:22:04;;;;;;;9.75;3.45;;;;;;;;;;5108579;27;20230;-79
2022/10/23 08:24:31;;;;;;;11.85;2.85;;;;;;;;;;5094195;28;20301;-79
2022/10/23 08:26:58;;;;;;;10.43;3.20;;;;;;;;;;5094115;28;20226;-79
2022/10/23 08:29:26;;;;;;;6.57;2.97;;;;;;;;;;5093921;28;20301;-79
2022/10/23 08:31:54;;;;;;;8.82;3.20;;;;;;;;;;5107989;28;20645;-79
2022/10/23 08:34:22;;;;;;;6.80;3.00;;;;;;;;;;5113007;28;20209;-79
2022/10/23 08:36:50;;;;;;;11.88;3.50;;;;;;;;;;5112852;28;20217;-79
2022/10/23 08:39:17;;;;;;;6.13;3.85;;;;;;;;;;5114071;28;20688;-80
2022/10/23 08:41:48;;;;;;;9.60;4.10;;;;;;;;;;5106652;28;20236;-78
2022/10/23 08:44:19;;;;;;;8.25;3.90;;;;;;;;;;5103083;28;20629;-79
2022/10/23 08:46:49;;;;;;;10.73;4.55;;;;;;;;;;5093612;28;20283;-79
2022/10/23 08:49:19;;;;;;;9.95;4.20;;;;;;;;;;5105927;28;20242;-79
2022/10/23 08:51:48;;;;;;;9.23;3.47;;;;;;;;;;5097875;28;20234;-78
2022/10/23 08:54:18;;;;;;;8.57;3.38;;;;;;;;;;5110670;28;20201;-79
2022/10/23 08:56:48;;;;;;;7.10;3.60;;;;;;;;;;5102926;28;20360;-78
2022/10/23 08:59:19;;;;;;;7.32;3.60;;;;;;;;;;5096675;28;20277;-77
2022/10/23 09:01:48;;;;;;;9.25;3.15;;;;;;;;;;5100170;28;20560;-77
2022/10/23 09:04:15;;;;;;;8.73;3.25;;;;;;;;;;5104085;28;20295;-77
2022/10/23 09:06:48;;;;;;;13.43;3.80;;;;;;;;;;5096191;28;20273;-78
2022/10/23 09:09:31;;;;;;;9.30;3.25;;;;;;;;;;5092693;28;20721;-78
2022/10/23 09:12:01;;;;;;;7.68;3.20;;;;;;;;;;5098780;28;20499;-78
2022/10/23 09:14:59;;;;;;;10.27;3.45;;;;;;;;;;5105478;28;20233;-79
2022/10/23 09:17:27;;;;;;;10.02;3.30;;;;;;;;;;5063892;28;20297;-79
2022/10/23 09:19:56;;;;;;;9.13;3.10;;;;;;;;;;5058542;28;20232;-79
2022/10/23 09:22:23;;;;;;;11.10;3.38;;;;;;;;;;5066183;28;20688;-82
2022/10/23 09:24:52;;;;;;;10.30;3.13;;;;;;;;;;5070076;28;20302;-79
2022/10/23 09:27:19;;;;;;;11.15;3.30;;;;;;;;;;5054809;28;20223;-79
2022/10/23 09:29:50;;;;;;;11.30;3.35;;;;;;;;;;5068582;28;20225;-78
2022/10/23 09:32:18;;;;;;;11.27;3.00;;;;;;;;;;5054568;28;20296;-79
2022/10/23 09:34:55;;;;;;;8.07;3.08;;;;;;;;;;5058502;28;20288;-79
2022/10/23 09:37:23;;;;;;;8.20;2.72;;;;;;;;;;5058299;28;20255;-78
2022/10/23 09:40:01;;;;;;;12.05;3.00;;;;;;;;;;5057524;28;20296;-79
2022/10/23 09:42:29;;;;;;;8.85;2.88;;;;;;;;;;5056456;28;20203;-79
2022/10/23 09:44:56;;;;;;;7.18;2.83;;;;;;;;;;5055628;28;20227;-79
2022/10/23 09:47:24;;;;;;;13.73;3.10;;;;;;;;;;5061961;28;20202;-78
2022/10/23 09:49:52;;;;;;;11.38;3.25;;;;;;;;;;5058786;28;20299;-78
2022/10/23 09:52:24;;;;;;;12.70;3.45;;;;;;;;;;5088754;28;20225;-79
2022/10/23 09:54:54;;;;;;;8.73;2.67;;;;;;;;;;5097257;28;20320;-78
2022/10/23 09:57:24;;;;;;;11.88;3.08;;;;;;;;;;5105846;28;20309;-79
2022/10/23 09:59:51;;;;;;;7.30;2.88;;;;;;;;;;5101783;28;20197;-79
2022/10/23 10:02:21;;;;;;;11.27;2.78;;;;;;;;;;5103491;28;20283;-77
2022/10/23 10:04:49;;;;;;;6.25;2.70;;;;;;;;;;5104036;28;20849;-79
2022/10/23 10:07:20;;;;;;;7.03;2.60;;;;;;;;;;5096629;28;20229;-79
2022/10/23 10:09:48;;;;;;;5.68;2.50;;;;;;;;;;5098522;28;20376;-80
2022/10/23 10:12:20;;;;;;;9.05;2.80;;;;;;;;;;5106490;28;20804;-84
2022/10/23 10:14:54;;;;;;;10.05;2.58;;;;;;;;;;5102896;28;20280;-80
2022/10/23 10:17:26;;;;;;;7.63;2.72;;;;;;;;;;5095358;28;20764;-80
2022/10/23 10:20:03;;;;;;;7.18;2.90;;;;;;;;;;5108066;28;20233;-80
2022/10/23 10:22:35;;;;;;;8.02;2.80;;;;;;;;;;5100720;28;20289;-79
2022/10/23 10:25:04;;;;;;;6.35;2.67;;;;;;;;;;5094401;28;20248;-80
2022/10/23 10:27:37;;;;;;;7.85;3.15;;;;;;;;;;5103310;28;20234;-80
2022/10/23 10:30:09;;;;;;;6.88;2.80;;;;;;;;;;5103924;28;20301;-80
2022/10/23 10:32:41;;;;;;;8.57;3.05;;;;;;;;;;5105517;28;20269;-79
2022/10/23 10:35:20;;;;;;;6.85;2.63;;;;;;;;;;5106372;28;20202;-79
2022/10/23 10:37:55;;;;;;;7.78;2.60;;;;;;;;;;5100320;28;20611;-80
2022/10/23 10:40:26;;;;;;;7.57;2.58;;;;;;;;;;5100891;28;20248;-80
2022/10/23 10:43:06;;;;;;;5.60;2.75;;;;;;;;;;5107277;28;20646;-81
2022/10/23 10:45:34;;;;;;;4.25;2.10;;;;;;;;;;5109421;28;20293;-79
2022/10/23 10:48:09;;;;;;;6.45;2.40;;;;;;;;;;5111183;28;20623;-84
2022/10/23 10:50:43;;;;;;;5.65;2.00;;;;;;;;;;5106209;28;20292;-79
2022/10/23 10:53:16;;;;;;;11.88;2.80;;;;;;;;;;5109809;28;20233;-81
2022/10/23 10:55:44;;;;;;;9.38;3.38;;;;;;;;;;5102564;28;20285;-80
2022/10/23 10:58:17;;;;;;;5.85;2.53;;;;;;;;;;5110029;28;20301;-80
2022/10/23 11:00:45;;;;;;;8.48;2.60;;;;;;;;;;5103723;28;20284;-80
2022/10/23 11:03:19;;;;;;;7.22;2.83;;;;;;;;;;5109717;28;20270;-80
2022/10/23 11:05:49;;;;;;;5.18;2.20;;;;;;;;;;5116347;28;20236;-82
2022/10/23 11:08:20;;;;;;;3.85;2.25;;;;;;;;;;5115721;28;20193;-80
2022/10/23 11:10:50;;;;;;;6.78;2.55;;;;;;;;;;5104460;28;20234;-80
2022/10/23 11:13:25;;;;;;;9.05;2.60;;;;;;;;;;5114946;28;20247;-80
2022/10/23 11:15:54;;;;;;;11.98;2.75;;;;;;;;;;5106109;28;20267;-80
2022/10/23 11:18:24;;;;;;;5.88;2.33;;;;;;;;;;5104933;28;20304;-79
2022/10/23 11:20:59;;;;;;;8.63;2.47;;;;;;;;;;5098923;28;20665;-81
2022/10/23 11:23:37;;;;;;;6.13;2.72;;;;;;;;;;5099490;28;20237;-79
2022/10/23 11:26:13;;;;;;;5.28;2.28;;;;;;;;;;5102523;28;20246;-81
2022/10/23 11:28:51;;;;;;;7.82;3.00;;;;;;;;;;5104505;28;20244;-82
2022/10/23 11:31:23;;;;;;;5.80;2.00;;;;;;;;;;5106619;28;20229;-82
2022/10/23 11:34:01;;;;;;;6.55;2.13;;;;;;;;;;5100745;28;20230;-81
2022/10/23 11:36:45;;;;;;;5.18;2.10;;;;;;;;;;5094339;28;20233;-81
2022/10/23 11:39:18;;;;;;;10.05;2.25;;;;;;;;;;5094679;28;20294;-82
2022/10/23 11:41:50;;;;;;;6.13;2.00;;;;;;;;;;5108102;28;20238;-80
2022/10/23 11:44:39;;;;;;;9.50;2.30;;;;;;;;;;5103337;28;20237;-82
2022/10/23 11:47:07;;;;;;;5.28;1.52;;;;;;;;;;5099880;28;20665;-80
2022/10/23 11:49:34;;;;;;;8.27;1.75;;;;;;;;;;5110054;28;20240;-80
2022/10/23 11:52:02;;;;;;;5.38;1.60;;;;;;;;;;5104557;28;20623;-80
2022/10/23 11:54:30;;;;;;;8.50;2.25;;;;;;;;;;5114041;28;20285;-81
2022/10/23 11:57:05;;;;;;;6.43;1.60;;;;;;;;;;5103680;28;20294;-80
2022/10/23 11:59:35;;;;;;;7.10;1.70;;;;;;;;;;5105618;28;20296;-80
2022/10/23 12:02:04;;;;;;;8.18;1.30;;;;;;;;;;5098722;28;20202;-80
2022/10/23 12:04:36;;;;;;;7.70;1.40;;;;;;;;;;5097787;28;20724;-80
2022/10/23 12:07:04;;;;;;;7.55;1.95;;;;;;;;;;5102966;28;20229;-80
2022/10/23 12:09:36;;;;;;;9.52;1.85;;;;;;;;;;5098015;28;20272;-80
2022/10/23 12:12:06;;;;;;;9.93;2.40;;;;;;;;;;5105447;28;20609;-80
2022/10/23 12:14:35;;;;;;;7.35;2.08;;;;;;;;;;5106267;28;20278;-80
2022/10/23 12:17:03;;;;;;;9.32;2.05;;;;;;;;;;5093959;28;20674;-80
2022/10/23 12:19:31;;;;;;;6.50;1.65;;;;;;;;;;5100665;28;20319;-80
2022/10/23 12:22:00;;;;;;;7.05;1.90;;;;;;;;;;5094477;28;20734;-80
2022/10/23 12:24:38;;;;;;;10.80;1.70;;;;;;;;;;5100144;28;20677;-80
2022/10/23 12:27:23;;;;;;;11.00;1.80;;;;;;;;;;5099215;28;20209;-80
2022/10/23 12:29:58;;;;;;;10.02;1.80;;;;;;;;;;5106538;28;20297;-81
2022/10/23 12:32:51;;;;;;;10.10;2.03;;;;;;;;;;5105482;28;20652;-80
2022/10/23 12:35:30;;;;;;;9.82;1.55;;;;;;;;;;5104215;28;20201;-80
2022/10/23 12:38:02;;;;;;;11.13;2.17;;;;;;;;;;5105682;28;20352;-80
2022/10/23 12:40:29;;;;;;;9.07;1.90;;;;;;;;;;5092037;28;20241;-80
2022/10/23 12:42:58;;;;;;;10.38;2.05;;;;;;;;;;5103897;28;20205;-80
2022/10/23 12:45:28;;;;;;;8.68;1.85;;;;;;;;;;5103256;28;20198;-80
2022/10/23 12:47:55;;;;;;;7.30;1.85;;;;;;;;;;5092896;28;20230;-80
2022/10/23 12:50:26;;;;;;;8.45;1.88;;;;;;;;;;5092817;28;20202;-80
2022/10/23 12:52:54;;;;;;;8.82;1.80;;;;;;;;;;5096705;28;20194;-80
2022/10/23 12:55:21;;;;;;;7.63;1.92;;;;;;;;;;5104967;28;20282;-80
2022/10/23 12:57:49;;;;;;;10.48;2.17;;;;;;;;;;5101509;28;20257;-80
2022/10/23 13:00:18;;;;;;;7.50;1.48;;;;;;;;;;5100136;28;20194;-79
2022/10/23 13:02:46;;;;;;;5.28;1.70;;;;;;;;;;5109385;28;20275;-79
2022/10/23 13:05:16;;;;;;;3.75;1.20;;;;;;;;;;5105027;28;20293;-79
2022/10/23 13:07:44;;;;;;;4.55;1.35;;;;;;;;;;5094129;28;20705;-79
2022/10/23 13:10:14;;;;;;;8.25;1.55;;;;;;;;;;5104924;28;20236;-79
2022/10/23 13:12:46;;;;;;;8.32;1.60;;;;;;;;;;5101327;28;20217;-79
2022/10/23 13:15:16;;;;;;;5.57;1.20;;;;;;;;;;5096132;28;20285;-79
2022/10/23 13:17:44;;;;;;;6.97;1.40;;;;;;;;;;5099858;28;20254;-78
2022/10/23 13:20:20;;;;;;;6.38;1.40;;;;;;;;;;5099818;28;20440;-78
2022/10/23 13:22:48;;;;;;;6.75;1.45;;;;;;;;;;5101012;28;20317;-78
2022/10/23 13:25:26;;;;;;;4.63;1.40;;;;;;;;;;5104545;28;20206;-79
2022/10/23 13:28:04;;;;;;;5.68;1.40;;;;;;;;;;5096172;28;21677;-78
2022/10/23 13:30:32;;;;;;;4.50;1.38;;;;;;;;;;5101099;28;20314;-79
2022/10/23 13:33:00;;;;;;;4.93;1.08;;;;;;;;;;5101277;28;20280;-79
2022/10/23 13:38:18;;;;;;;5.50;1.30;;;;;;;;;;5104072;28;20307;-79
2022/10/23 13:40:56;;;;;;;7.18;1.10;;;;;;;;;;5107983;28;20737;-79
2022/10/23 13:43:25;;;;;;;2.97;0.90;;;;;;;;;;5104358;28;20282;-80
2022/10/23 13:45:54;;;;;;;5.20;0.80;;;;;;;;;;5099219;28;20210;-81
2022/10/23 13:48:21;;;;;;;4.95;0.98;;;;;;;;;;5101784;28;20736;-78
2022/10/23 13:50:50;;;;;;;4.97;1.10;;;;;;;;;;5109228;28;20289;-79
2022/10/23 13:53:17;;;;;;;4.10;1.13;;;;;;;;;;5099435;28;20297;-78
2022/10/23 13:55:45;;;;;;;5.28;1.15;;;;;;;;;;5098733;28;20578;-78
2022/10/23 13:58:13;;;;;;;3.78;0.82;;;;;;;;;;5102067;28;20308;-79
2022/10/23 14:00:42;;;;;;;4.28;0.80;;;;;;;;;;5101212;28;20268;-79
2022/10/23 14:03:09;;;;;;;6.93;0.98;;;;;;;;;;5106297;28;20206;-80
2022/10/23 14:05:36;;;;;;;3.17;0.60;;;;;;;;;;5112367;28;20229;-79
2022/10/23 14:08:05;;;;;;;5.20;0.82;;;;;;;;;;5095053;28;20666;-78
2022/10/23 14:10:32;;;;;;;5.22;0.80;;;;;;;;;;5098892;28;20842;-79
2022/10/23 14:13:00;;;;;;;6.63;0.75;;;;;;;;;;5103220;28;20627;-78
2022/10/23 14:15:27;;;;;;;3.42;0.70;;;;;;;;;;5101571;28;20300;-79
2022/10/23 14:17:54;;;;;;;2.30;0.82;;;;;;;;;;5103994;28;20292;-79
2022/10/23 14:20:21;;;;;;;3.40;0.88;;;;;;;;;;5096975;28;20225;-79
2022/10/23 14:22:48;;;;;;;3.47;0.80;;;;;;;;;;5100724;28;20236;-78
2022/10/23 14:25:17;;;;;;;4.60;0.88;;;;;;;;;;5097003;28;20670;-80
2022/10/23 14:27:44;;;;;;;4.90;1.10;;;;;;;;;;5097358;28;20251;-79
2022/10/23 14:30:12;;;;;;;5.95;0.90;;;;;;;;;;5101258;28;20777;-79
2022/10/23 14:32:39;;;;;;;2.50;0.60;;;;;;;;;;5105376;28;20601;-79
2022/10/23 14:35:07;;;;;;;2.53;0.70;;;;;;;;;;5108537;28;20288;-79
2022/10/23 14:37:34;;;;;;;4.93;0.80;;;;;;;;;;5105664;28;20307;-79
2022/10/23 14:40:02;;;;;;;3.72;0.77;;;;;;;;;;5099872;28;20218;-78
2022/10/23 14:42:33;;;;;;;4.45;0.70;;;;;;;;;;5112196;28;20228;-80
2022/10/23 14:45:01;;;;;;;4.00;0.60;;;;;;;;;;5103853;28;20198;-80
2022/10/23 14:47:28;;;;;;;3.20;0.80;;;;;;;;;;5102885;28;20198;-78
2022/10/23 14:49:56;;;;;;;3.83;0.60;;;;;;;;;;5093079;28;20294;-78
2022/10/23 14:52:23;;;;;;;2.92;0.68;;;;;;;;;;5106111;28;20281;-78
2022/10/23 14:54:51;;;;;;;4.72;0.50;;;;;;;;;;5099568;28;20325;-78
2022/10/23 14:57:20;;;;;;;2.35;0.52;;;;;;;;;;5091880;28;20199;-78
2022/10/23 14:59:49;;;;;;;3.35;0.73;;;;;;;;;;5103398;28;20221;-79